Barlow, Kentucky
Current Conditions -  °F | °C
As of 1:55 AM on Thursday 27 Nov 2014 (Local Time) from KCIR Reporting Station
Overcast Overcast  
Wind Chill: 30°   Ceiling: 1900
Heat Index: 39°   Visibility: 10mi
Dew Point: 34°   Wind: 16mph
Humidity: 82%   Direction: 300°WNW
Pressure: 30.22"   Gusts: 24mph
Location:  37.05°N, 89.05°W
Report Text: KCIR 270755Z AUTO 30014G21KT 10SM BKN019 OVC024 04/01 A3022 RMK AO2 T00390011
Loading
Personal Weather Stations






























Interactive Weather Map New forecast layout! Learn more

10-Day Weather Forecast

Advertisements
Track Severe Weather on mobile